createdAt,value
2018-07-07T00:00:50.202Z,1006.98
2018-07-07T00:01:50.185Z,1006.99
2018-07-07T00:02:50.176Z,1006.99
2018-07-07T00:03:50.167Z,1006.96
2018-07-07T00:04:50.153Z,1007.01
2018-07-07T00:05:50.147Z,1006.98
2018-07-07T00:06:50.139Z,1007.02
2018-07-07T00:07:50.125Z,1007.03
2018-07-07T00:08:50.119Z,1007.00
2018-07-07T00:09:50.100Z,1007.01
2018-07-07T00:10:50.087Z,1006.95
2018-07-07T00:11:50.076Z,1006.97
2018-07-07T00:12:50.075Z,1006.99
2018-07-07T00:13:50.080Z,1007.00
2018-07-07T00:14:50.050Z,1007.02
2018-07-07T00:15:50.033Z,1007.00
2018-07-07T00:16:50.023Z,1006.95
2018-07-07T00:17:50.019Z,1006.97
2018-07-07T00:18:50.055Z,1006.96
2018-07-07T00:19:50.003Z,1006.98
2018-07-07T00:20:49.986Z,1007.01
2018-07-07T00:21:49.969Z,1007.03
2018-07-07T00:22:49.956Z,1007.01
2018-07-07T00:23:49.945Z,1006.98
2018-07-07T00:24:49.939Z,1007.01
2018-07-07T00:25:49.938Z,1007.03
2018-07-07T00:26:49.920Z,1007.01
2018-07-07T00:27:49.909Z,1007.02
2018-07-07T00:28:49.898Z,1007.02
2018-07-07T00:29:49.886Z,1007.06
2018-07-07T00:30:49.869Z,1007.04
2018-07-07T00:31:49.866Z,1007.05
2018-07-07T00:32:49.852Z,1007.07
2018-07-07T00:33:49.840Z,1007.09
2018-07-07T00:34:49.828Z,1007.03
2018-07-07T00:35:49.816Z,1007.05
2018-07-07T00:36:49.808Z,1007.03
2018-07-07T00:37:49.798Z,1007.05
2018-07-07T00:38:49.788Z,1007.05
2018-07-07T00:39:49.781Z,1007.02
2018-07-07T00:40:49.765Z,1007.03
2018-07-07T00:41:49.754Z,1007.06
2018-07-07T00:42:49.739Z,1007.05
2018-07-07T00:43:49.729Z,1007.03
2018-07-07T00:44:49.769Z,1007.06
2018-07-07T00:45:49.710Z,1007.07
2018-07-07T00:46:49.713Z,1007.05
2018-07-07T00:47:49.688Z,1007.07
2018-07-07T00:48:49.675Z,1007.08
2018-07-07T00:49:49.669Z,1007.11
2018-07-07T00:50:49.675Z,1007.16
2018-07-07T00:51:49.648Z,1007.12
2018-07-07T00:52:49.636Z,1007.09
2018-07-07T00:53:49.621Z,1007.11
2018-07-07T00:54:49.612Z,1007.11
2018-07-07T00:55:49.612Z,1007.10
2018-07-07T00:56:49.589Z,1007.11
2018-07-07T00:57:49.580Z,1007.13
2018-07-07T00:58:49.573Z,1007.11
2018-07-07T00:59:49.562Z,1007.14
2018-07-07T01:00:49.551Z,1007.18
2018-07-07T01:01:49.535Z,1007.16
2018-07-07T01:02:49.524Z,1007.16
2018-07-07T01:03:49.518Z,1007.15
2018-07-07T01:04:49.518Z,1007.15
2018-07-07T01:05:49.527Z,1007.19
2018-07-07T01:06:49.487Z,1007.17
2018-07-07T01:07:49.468Z,1007.19
2018-07-07T01:08:49.459Z,1007.17
2018-07-07T01:09:49.451Z,1007.15
2018-07-07T01:10:49.442Z,1007.19
2018-07-07T01:11:49.434Z,1007.19
2018-07-07T01:12:49.419Z,1007.20
2018-07-07T01:13:49.409Z,1007.19
2018-07-07T01:14:49.408Z,1007.22
2018-07-07T01:15:49.410Z,1007.19
2018-07-07T01:16:49.372Z,1007.14
2018-07-07T01:17:49.365Z,1007.17
2018-07-07T01:18:49.358Z,1007.17
2018-07-07T01:19:49.360Z,1007.14
2018-07-07T01:20:49.331Z,1007.19
2018-07-07T01:21:49.328Z,1007.22
2018-07-07T01:22:49.306Z,1007.24
2018-07-07T01:23:49.296Z,1007.21
2018-07-07T01:24:49.290Z,1007.22
2018-07-07T01:25:49.292Z,1007.22
2018-07-07T01:26:49.272Z,1007.24
2018-07-07T01:27:49.260Z,1007.21
2018-07-07T01:28:49.246Z,1007.17
2018-07-07T01:29:49.234Z,1007.18
2018-07-07T01:30:49.220Z,1007.17
2018-07-07T01:31:49.215Z,1007.13
2018-07-07T01:32:49.226Z,1007.12
2018-07-07T01:33:49.193Z,1007.10
2018-07-07T01:34:49.187Z,1007.06
2018-07-07T01:35:49.166Z,1007.05
2018-07-07T01:36:49.177Z,1007.08
2018-07-07T01:37:49.215Z,1007.10
2018-07-07T01:38:49.143Z,1007.11
2018-07-07T01:39:49.131Z,1007.09
2018-07-07T01:40:49.117Z,1007.12
2018-07-07T01:41:49.130Z,1007.10
2018-07-07T01:42:49.092Z,1007.12
2018-07-07T01:43:49.080Z,1007.15
2018-07-07T01:44:49.072Z,1007.14
2018-07-07T01:45:49.063Z,1007.17
2018-07-07T01:46:49.055Z,1007.14
2018-07-07T01:47:49.046Z,1007.09
2018-07-07T01:48:49.032Z,1007.09
2018-07-07T01:49:49.017Z,1007.07
2018-07-07T01:50:49.004Z,1007.07
2018-07-07T01:51:49.001Z,1007.09
2018-07-07T01:52:48.994Z,1007.09
2018-07-07T01:53:48.978Z,1007.12
2018-07-07T01:54:48.962Z,1007.08
2018-07-07T01:55:48.950Z,1007.11
2018-07-07T01:56:48.941Z,1007.14
2018-07-07T01:57:48.934Z,1007.11
2018-07-07T01:58:48.924Z,1007.13
2018-07-07T01:59:48.915Z,1007.12
2018-07-07T02:00:48.904Z,1007.11
2018-07-07T02:01:48.894Z,1007.12
2018-07-07T02:02:48.884Z,1007.07
2018-07-07T02:03:48.863Z,1007.11
2018-07-07T02:04:48.857Z,1007.09
2018-07-07T02:05:48.855Z,1007.08
2018-07-07T02:06:48.837Z,1007.06
2018-07-07T02:07:48.849Z,1007.06
2018-07-07T02:08:48.814Z,1007.12
2018-07-07T02:09:48.803Z,1007.14
2018-07-07T02:10:48.821Z,1007.12
2018-07-07T02:11:48.785Z,1007.18
2018-07-07T02:12:48.773Z,1007.15
2018-07-07T02:13:48.769Z,1007.12
2018-07-07T02:14:48.750Z,1007.15
2018-07-07T02:15:48.734Z,1007.16
2018-07-07T02:16:48.725Z,1007.18
2018-07-07T02:17:48.768Z,1007.18
2018-07-07T02:18:48.754Z,1007.17
2018-07-07T02:19:48.698Z,1007.19
2018-07-07T02:20:48.690Z,1007.16
2018-07-07T02:21:48.700Z,1007.16
2018-07-07T02:22:48.670Z,1007.13
2018-07-07T02:23:48.680Z,1007.13
2018-07-07T02:24:48.659Z,1007.11
2018-07-07T02:25:48.628Z,1007.15
2018-07-07T02:26:48.615Z,1007.13
2018-07-07T02:27:48.604Z,1007.15
2018-07-07T02:28:48.601Z,1007.18
2018-07-07T02:29:48.587Z,1007.14
2018-07-07T02:30:48.584Z,1007.15
2018-07-07T02:31:48.583Z,1007.18
2018-07-07T02:32:48.555Z,1007.17
2018-07-07T02:33:48.547Z,1007.11
2018-07-07T02:34:48.532Z,1007.15
2018-07-07T02:35:48.517Z,1007.15
2018-07-07T02:36:48.509Z,1007.12
2018-07-07T02:37:48.499Z,1007.19
2018-07-07T02:38:48.493Z,1007.11
2018-07-07T02:39:48.473Z,1007.16
2018-07-07T02:40:48.465Z,1007.15
2018-07-07T02:41:48.457Z,1007.18
2018-07-07T02:42:48.448Z,1007.13
2018-07-07T02:43:48.457Z,1007.17
2018-07-07T02:44:48.426Z,1007.15
2018-07-07T02:45:48.412Z,1007.17
2018-07-07T02:46:48.398Z,1007.18
2018-07-07T02:47:48.388Z,1007.15
2018-07-07T02:48:48.382Z,1007.13
2018-07-07T02:49:48.370Z,1007.13
2018-07-07T02:50:48.361Z,1007.18
2018-07-07T02:51:48.350Z,1007.15
2018-07-07T02:52:48.338Z,1007.13
2018-07-07T02:53:48.326Z,1007.16
2018-07-07T02:54:48.311Z,1007.16
2018-07-07T02:55:48.307Z,1007.15
2018-07-07T02:56:48.294Z,1007.20
2018-07-07T02:57:48.281Z,1007.16
2018-07-07T02:58:48.299Z,1007.17
2018-07-07T02:59:48.256Z,1007.16
2018-07-07T03:00:48.296Z,1007.16
2018-07-07T03:01:48.240Z,1007.17
2018-07-07T03:02:48.237Z,1007.16
2018-07-07T03:03:48.221Z,1007.17
2018-07-07T03:04:48.211Z,1007.17
2018-07-07T03:05:48.198Z,1007.16
2018-07-07T03:06:48.182Z,1007.19
2018-07-07T03:07:48.220Z,1007.18
2018-07-07T03:08:48.163Z,1007.17
2018-07-07T03:09:48.228Z,1007.15
2018-07-07T03:10:48.146Z,1007.19
2018-07-07T03:11:48.132Z,1007.20
2018-07-07T03:12:48.118Z,1007.18
2018-07-07T03:13:48.112Z,1007.21
2018-07-07T03:14:48.122Z,1007.18
2018-07-07T03:15:48.122Z,1007.22
2018-07-07T03:16:48.077Z,1007.19
2018-07-07T03:17:48.071Z,1007.18
2018-07-07T03:18:48.051Z,1007.18
2018-07-07T03:19:48.040Z,1007.23
2018-07-07T03:20:48.033Z,1007.19
2018-07-07T03:21:48.024Z,1007.22
2018-07-07T03:22:48.015Z,1007.25
2018-07-07T03:23:48.003Z,1007.26
2018-07-07T03:24:47.991Z,1007.26
2018-07-07T03:25:47.997Z,1007.25
2018-07-07T03:26:47.967Z,1007.27
2018-07-07T03:27:47.961Z,1007.31
2018-07-07T03:28:47.947Z,1007.32
2018-07-07T03:29:47.935Z,1007.30
2018-07-07T03:30:47.954Z,1007.32
2018-07-07T03:31:47.911Z,1007.35
2018-07-07T03:32:47.903Z,1007.31
2018-07-07T03:33:47.893Z,1007.39
2018-07-07T03:34:47.891Z,1007.37
2018-07-07T03:35:47.890Z,1007.37
2018-07-07T03:36:47.865Z,1007.38
2018-07-07T03:37:47.848Z,1007.36
2018-07-07T03:38:47.839Z,1007.41
2018-07-07T03:39:47.826Z,1007.41
2018-07-07T03:40:47.817Z,1007.44
2018-07-07T03:41:47.809Z,1007.38
2018-07-07T03:42:47.800Z,1007.38
2018-07-07T03:43:47.783Z,1007.38
2018-07-07T03:44:47.773Z,1007.40
2018-07-07T03:45:47.765Z,1007.38
2018-07-07T03:46:47.764Z,1007.38
2018-07-07T03:47:47.761Z,1007.44
2018-07-07T03:48:47.744Z,1007.44
2018-07-07T03:49:47.720Z,1007.42
2018-07-07T03:50:47.706Z,1007.48
2018-07-07T03:51:47.697Z,1007.49
2018-07-07T03:52:47.688Z,1007.51
2018-07-07T03:53:47.682Z,1007.48
2018-07-07T03:54:47.697Z,1007.51
2018-07-07T03:55:47.664Z,1007.53
2018-07-07T03:56:47.648Z,1007.55
2018-07-07T03:57:47.634Z,1007.52
2018-07-07T03:58:47.688Z,1007.57
2018-07-07T03:59:47.629Z,1007.52
2018-07-07T04:00:47.628Z,1007.56
2018-07-07T04:01:47.638Z,1007.62
2018-07-07T04:02:47.577Z,1007.60
2018-07-07T04:03:47.567Z,1007.62
2018-07-07T04:04:47.559Z,1007.63
2018-07-07T04:05:47.576Z,1007.60
2018-07-07T04:06:47.546Z,1007.63
2018-07-07T04:07:47.533Z,1007.64
2018-07-07T04:08:47.521Z,1007.62
2018-07-07T04:09:47.504Z,1007.62
2018-07-07T04:10:47.536Z,1007.68
2018-07-07T04:11:47.480Z,1007.67
2018-07-07T04:12:47.474Z,1007.71
2018-07-07T04:13:47.464Z,1007.74
2018-07-07T04:14:47.456Z,1007.74
2018-07-07T04:15:47.440Z,1007.72
2018-07-07T04:16:47.448Z,1007.76
2018-07-07T04:17:47.430Z,1007.70
2018-07-07T04:18:47.412Z,1007.74
2018-07-07T04:19:47.402Z,1007.77
2018-07-07T04:20:47.388Z,1007.73
2018-07-07T04:21:47.374Z,1007.74
2018-07-07T04:22:47.380Z,1007.75
2018-07-07T04:23:47.358Z,1007.80
2018-07-07T04:24:47.346Z,1007.76
2018-07-07T04:25:47.333Z,1007.77
2018-07-07T04:26:47.320Z,1007.78
2018-07-07T04:27:47.334Z,1007.79
2018-07-07T04:28:47.298Z,1007.81
2018-07-07T04:29:47.290Z,1007.82
2018-07-07T04:30:47.287Z,1007.81
2018-07-07T04:31:47.264Z,1007.81
2018-07-07T04:32:47.259Z,1007.79
2018-07-07T04:33:47.252Z,1007.77
2018-07-07T04:34:47.239Z,1007.79
2018-07-07T04:35:47.231Z,1007.79
2018-07-07T04:36:47.216Z,1007.77
2018-07-07T04:37:47.202Z,1007.76
2018-07-07T04:38:47.208Z,1007.79
2018-07-07T04:39:47.178Z,1007.80
2018-07-07T04:40:47.169Z,1007.83
2018-07-07T04:41:47.165Z,1007.82
2018-07-07T04:42:47.152Z,1007.84
2018-07-07T04:43:47.194Z,1007.83
2018-07-07T04:44:47.172Z,1007.82
2018-07-07T04:45:47.131Z,1007.82
2018-07-07T04:46:47.106Z,1007.81
2018-07-07T04:47:47.116Z,1007.80
2018-07-07T04:48:47.106Z,1007.83
2018-07-07T04:49:47.078Z,1007.80
2018-07-07T04:50:47.063Z,1007.84
2018-07-07T04:51:47.048Z,1007.84
2018-07-07T04:52:47.040Z,1007.86
2018-07-07T04:53:47.033Z,1007.84
2018-07-07T04:54:47.025Z,1007.82
2018-07-07T04:55:47.012Z,1007.82
2018-07-07T04:56:47.000Z,1007.83
2018-07-07T04:57:46.985Z,1007.83
2018-07-07T04:58:46.975Z,1007.80
2018-07-07T04:59:46.964Z,1007.82
2018-07-07T05:00:46.953Z,1007.86
2018-07-07T05:01:46.945Z,1007.87
2018-07-07T05:02:46.937Z,1007.90
2018-07-07T05:03:46.920Z,1007.90
2018-07-07T05:04:46.914Z,1007.92
2018-07-07T05:05:46.923Z,1007.91
2018-07-07T05:06:46.893Z,1007.94
2018-07-07T05:07:46.883Z,1007.95
2018-07-07T05:08:46.870Z,1007.97
2018-07-07T05:09:46.882Z,1007.97
2018-07-07T05:10:46.844Z,1007.98
2018-07-07T05:11:46.849Z,1007.99
2018-07-07T05:12:46.851Z,1007.96
2018-07-07T05:13:46.832Z,1007.99
2018-07-07T05:14:46.822Z,1007.98
2018-07-07T05:15:46.814Z,1008.00
2018-07-07T05:16:46.784Z,1007.98
2018-07-07T05:17:46.785Z,1007.99
2018-07-07T05:18:46.770Z,1007.96
2018-07-07T05:19:46.769Z,1007.94
2018-07-07T05:20:46.756Z,1007.96
2018-07-07T05:21:46.730Z,1007.94
2018-07-07T05:22:46.715Z,1007.97
2018-07-07T05:23:46.704Z,1007.96
2018-07-07T05:24:46.696Z,1007.98
2018-07-07T05:25:46.694Z,1007.99
2018-07-07T05:26:46.682Z,1008.00
2018-07-07T05:27:46.668Z,1008.00
2018-07-07T05:28:46.656Z,1008.02
2018-07-07T05:29:46.643Z,1008.04
2018-07-07T05:30:46.643Z,1008.08
2018-07-07T05:31:46.681Z,1008.06
2018-07-07T05:32:46.627Z,1008.08
2018-07-07T05:33:46.608Z,1008.05
2018-07-07T05:34:46.612Z,1008.02
2018-07-07T05:35:46.654Z,1008.01
2018-07-07T05:36:46.565Z,1008.02
2018-07-07T05:37:46.571Z,1008.03
2018-07-07T05:38:46.549Z,1008.07
2018-07-07T05:39:46.545Z,1008.12
2018-07-07T05:40:46.526Z,1008.13
2018-07-07T05:41:46.514Z,1008.13
2018-07-07T05:42:46.498Z,1008.20
2018-07-07T05:43:46.489Z,1008.18
2018-07-07T05:44:46.480Z,1008.17
2018-07-07T05:45:46.474Z,1008.20
2018-07-07T05:46:46.482Z,1008.22
2018-07-07T05:47:46.463Z,1008.20
2018-07-07T05:48:46.439Z,1008.25
2018-07-07T05:49:46.425Z,1008.21
2018-07-07T05:50:46.411Z,1008.21
2018-07-07T05:51:46.405Z,1008.18
2018-07-07T05:52:46.394Z,1008.21
2018-07-07T05:53:46.382Z,1008.20
2018-07-07T05:54:46.367Z,1008.24
2018-07-07T05:55:46.358Z,1008.24
2018-07-07T05:56:46.372Z,1008.26
2018-07-07T05:57:46.340Z,1008.24
2018-07-07T05:58:46.332Z,1008.25
2018-07-07T05:59:46.321Z,1008.26
2018-07-07T06:00:46.309Z,1008.25
2018-07-07T06:01:46.345Z,1008.30
2018-07-07T06:02:46.282Z,1008.26
2018-07-07T06:03:46.273Z,1008.27
2018-07-07T06:04:46.262Z,1008.28
2018-07-07T06:05:46.254Z,1008.34
2018-07-07T06:06:46.244Z,1008.37
2018-07-07T06:07:46.231Z,1008.32
2018-07-07T06:08:46.219Z,1008.41
2018-07-07T06:09:46.211Z,1008.42
2018-07-07T06:10:46.201Z,1008.42
2018-07-07T06:11:46.193Z,1008.41
2018-07-07T06:12:46.183Z,1008.40
2018-07-07T06:13:46.166Z,1008.45
2018-07-07T06:14:46.152Z,1008.44
2018-07-07T06:15:46.142Z,1008.33
2018-07-07T06:16:46.146Z,1008.36
2018-07-07T06:17:46.170Z,1008.31
2018-07-07T06:18:46.124Z,1008.34
2018-07-07T06:19:46.117Z,1008.30
2018-07-07T06:20:46.112Z,1008.31
2018-07-07T06:21:46.084Z,1008.27
2018-07-07T06:22:46.096Z,1008.26
2018-07-07T06:23:46.101Z,1008.30
2018-07-07T06:24:46.053Z,1008.30
2018-07-07T06:25:46.037Z,1008.31
2018-07-07T06:26:46.071Z,1008.34
2018-07-07T06:27:46.013Z,1008.32
2018-07-07T06:28:46.007Z,1008.29
2018-07-07T06:29:45.996Z,1008.32
2018-07-07T06:30:46.011Z,1008.30
2018-07-07T06:31:45.979Z,1008.33
2018-07-07T06:32:45.966Z,1008.25
2018-07-07T06:33:45.953Z,1008.29
2018-07-07T06:34:45.941Z,1008.25
2018-07-07T06:35:45.925Z,1008.25
2018-07-07T06:36:45.917Z,1008.26
2018-07-07T06:37:45.911Z,1008.26
2018-07-07T06:38:45.928Z,1008.25
2018-07-07T06:39:45.882Z,1008.29
2018-07-07T06:40:45.872Z,1008.28
2018-07-07T06:41:45.869Z,1008.26
2018-07-07T06:42:45.856Z,1008.28
2018-07-07T06:43:45.919Z,1008.29
2018-07-07T06:44:45.835Z,1008.28
2018-07-07T06:45:45.820Z,1008.23
2018-07-07T06:46:45.806Z,1008.30
2018-07-07T06:47:45.796Z,1008.29
2018-07-07T06:48:45.787Z,1008.26
2018-07-07T06:49:45.795Z,1008.28
2018-07-07T06:50:45.771Z,1008.27
2018-07-07T06:51:45.760Z,1008.29
2018-07-07T06:52:45.748Z,1008.29
2018-07-07T06:53:45.755Z,1008.25
2018-07-07T06:54:45.724Z,1008.29
2018-07-07T06:55:45.717Z,1008.28
2018-07-07T06:56:45.705Z,1008.27
2018-07-07T06:57:45.692Z,1008.29
2018-07-07T06:58:45.679Z,1008.29
2018-07-07T06:59:45.674Z,1008.27
2018-07-07T07:00:45.666Z,1008.24
2018-07-07T07:01:45.654Z,1008.27
2018-07-07T07:02:45.653Z,1008.27
2018-07-07T07:03:45.635Z,1008.29
2018-07-07T07:04:45.631Z,1008.31
2018-07-07T07:05:45.627Z,1008.29
2018-07-07T07:06:45.609Z,1008.25
2018-07-07T07:07:45.629Z,1008.30
2018-07-07T07:08:45.622Z,1008.31
2018-07-07T07:09:45.623Z,1008.25
2018-07-07T07:10:45.573Z,1008.32
2018-07-07T07:11:45.546Z,1008.28
2018-07-07T07:12:45.532Z,1008.33
2018-07-07T07:13:45.524Z,1008.31
2018-07-07T07:14:45.544Z,1008.35
2018-07-07T07:15:45.620Z,1008.33
2018-07-07T07:16:45.491Z,1008.34
2018-07-07T07:17:45.477Z,1008.33
2018-07-07T07:18:45.466Z,1008.30
2018-07-07T07:19:45.455Z,1008.33
2018-07-07T07:20:45.453Z,1008.37
2018-07-07T07:21:45.437Z,1008.37
2018-07-07T07:22:45.432Z,1008.43
2018-07-07T07:23:45.426Z,1008.37
2018-07-07T07:24:45.404Z,1008.34
2018-07-07T07:25:45.393Z,1008.34
2018-07-07T07:26:45.378Z,1008.35
2018-07-07T07:27:45.373Z,1008.38
2018-07-07T07:28:45.361Z,1008.37
2018-07-07T07:29:45.346Z,1008.35
2018-07-07T07:30:45.358Z,1008.39
2018-07-07T07:31:45.322Z,1008.38
2018-07-07T07:32:45.314Z,1008.39
2018-07-07T07:33:45.305Z,1008.41
2018-07-07T07:34:45.303Z,1008.41
2018-07-07T07:35:45.285Z,1008.43
2018-07-07T07:36:45.288Z,1008.43
2018-07-07T07:37:45.259Z,1008.44
2018-07-07T07:38:45.245Z,1008.49
2018-07-07T07:39:45.234Z,1008.43
2018-07-07T07:40:45.225Z,1008.50
2018-07-07T07:41:45.249Z,1008.43
2018-07-07T07:42:45.212Z,1008.47
2018-07-07T07:43:45.192Z,1008.46
2018-07-07T07:44:45.191Z,1008.46
2018-07-07T07:45:45.199Z,1008.45
2018-07-07T07:46:45.181Z,1008.43
2018-07-07T07:47:45.204Z,1008.40
2018-07-07T07:48:45.146Z,1008.43
2018-07-07T07:49:45.128Z,1008.46
2018-07-07T07:50:45.134Z,1008.45
2018-07-07T07:51:45.107Z,1008.44
2018-07-07T07:52:45.118Z,1008.43
2018-07-07T07:53:45.092Z,1008.44
2018-07-07T07:54:45.089Z,1008.44
2018-07-07T07:55:45.082Z,1008.41
2018-07-07T07:56:45.130Z,1008.41
2018-07-07T07:57:45.042Z,1008.41
2018-07-07T07:58:45.039Z,1008.46
2018-07-07T07:59:45.033Z,1008.48
2018-07-07T08:00:45.014Z,1008.48
2018-07-07T08:01:44.998Z,1008.49
2018-07-07T08:02:44.992Z,1008.50
2018-07-07T08:03:44.997Z,1008.49
2018-07-07T08:04:44.979Z,1008.50
2018-07-07T08:05:44.965Z,1008.43
2018-07-07T08:06:44.949Z,1008.51
2018-07-07T08:07:44.958Z,1008.45
2018-07-07T08:08:44.926Z,1008.45
2018-07-07T08:09:44.913Z,1008.51
2018-07-07T08:10:44.900Z,1008.56
2018-07-07T08:11:44.889Z,1008.48
2018-07-07T08:12:44.900Z,1008.51
2018-07-07T08:13:44.874Z,1008.51
2018-07-07T08:14:44.866Z,1008.52
2018-07-07T08:15:44.849Z,1008.56
2018-07-07T08:16:44.839Z,1008.59
2018-07-07T08:17:44.862Z,1008.56
2018-07-07T08:18:44.821Z,1008.60
2018-07-07T08:19:44.812Z,1008.68
2018-07-07T08:20:44.800Z,1008.65
2018-07-07T08:21:44.786Z,1008.69
2018-07-07T08:22:44.824Z,1008.75
2018-07-07T08:23:44.765Z,1008.77
2018-07-07T08:24:44.753Z,1008.86
2018-07-07T08:25:44.743Z,1008.97
2018-07-07T08:26:44.736Z,1009.02
2018-07-07T08:27:44.725Z,1009.08
2018-07-07T08:28:44.724Z,1009.09
2018-07-07T08:29:44.699Z,1009.15
2018-07-07T08:30:44.690Z,1009.13
2018-07-07T08:31:44.683Z,1009.15
2018-07-07T08:32:44.676Z,1009.17
2018-07-07T08:33:44.680Z,1009.21
2018-07-07T08:34:44.662Z,1009.17
2018-07-07T08:35:44.636Z,1009.24
2018-07-07T08:36:44.630Z,1009.18
2018-07-07T08:37:44.618Z,1009.18
2018-07-07T08:38:44.636Z,1009.18
2018-07-07T08:39:44.619Z,1009.17
2018-07-07T08:40:44.592Z,1009.20
2018-07-07T08:41:44.595Z,1009.23
2018-07-07T08:42:44.612Z,1009.23
2018-07-07T08:43:44.598Z,1009.20
2018-07-07T08:44:44.544Z,1009.25
2018-07-07T08:45:44.539Z,1009.28
2018-07-07T08:46:44.525Z,1009.27
2018-07-07T08:47:44.513Z,1009.26
2018-07-07T08:48:44.503Z,1009.29
2018-07-07T08:49:44.520Z,1009.24
2018-07-07T08:50:44.488Z,1009.29
2018-07-07T08:51:44.475Z,1009.26
2018-07-07T08:52:44.473Z,1009.25
2018-07-07T08:53:44.454Z,1009.11
2018-07-07T08:54:44.470Z,1009.08
2018-07-07T08:55:44.430Z,1009.04
2018-07-07T08:56:44.420Z,1008.97
2018-07-07T08:57:44.417Z,1008.93
2018-07-07T08:58:44.406Z,1008.95
2018-07-07T08:59:44.396Z,1008.89
2018-07-07T09:00:44.400Z,1008.92
2018-07-07T09:01:44.371Z,1008.95
2018-07-07T09:02:44.369Z,1008.90
2018-07-07T09:03:44.357Z,1008.94
2018-07-07T09:04:44.348Z,1008.97
2018-07-07T09:05:44.333Z,1008.94
2018-07-07T09:06:44.326Z,1008.95
2018-07-07T09:07:44.326Z,1008.96
2018-07-07T09:08:44.302Z,1009.02
2018-07-07T09:09:44.459Z,1009.10
2018-07-07T09:10:44.323Z,1009.14
2018-07-07T09:11:44.276Z,1009.23
2018-07-07T09:12:44.271Z,1009.25
2018-07-07T09:13:44.255Z,1009.28
2018-07-07T09:14:44.250Z,1009.33
2018-07-07T09:15:44.237Z,1009.28
2018-07-07T09:16:44.223Z,1009.30
2018-07-07T09:17:44.224Z,1009.33
2018-07-07T09:18:44.274Z,1009.31
2018-07-07T09:19:44.196Z,1009.37
2018-07-07T09:20:44.203Z,1009.41
2018-07-07T09:21:44.180Z,1009.39
2018-07-07T09:22:44.170Z,1009.47
2018-07-07T09:23:44.157Z,1009.39
2018-07-07T09:24:44.155Z,1009.41
2018-07-07T09:25:44.162Z,1009.41
2018-07-07T09:26:44.130Z,1009.38
2018-07-07T09:27:44.126Z,1009.35
2018-07-07T09:28:45.190Z,1009.40
2018-07-07T09:29:44.148Z,1009.38
2018-07-07T09:30:44.111Z,1009.36
2018-07-07T09:31:44.181Z,1009.43
2018-07-07T09:32:44.075Z,1009.41
2018-07-07T09:33:44.091Z,1009.33
2018-07-07T09:34:44.053Z,1009.34
2018-07-07T09:35:44.376Z,1009.34
2018-07-07T09:36:44.050Z,1009.34
2018-07-07T09:37:44.022Z,1009.36
2018-07-07T09:38:44.051Z,1009.31
2018-07-07T09:39:44.008Z,1009.15
2018-07-07T09:40:43.997Z,1009.06
2018-07-07T09:41:44.013Z,1009.02
2018-07-07T09:42:43.979Z,1008.87
2018-07-07T09:43:43.985Z,1008.75
2018-07-07T09:44:43.961Z,1008.71
2018-07-07T09:45:43.947Z,1008.65
2018-07-07T09:46:43.958Z,1008.63
2018-07-07T09:47:43.938Z,1008.62
2018-07-07T09:48:43.920Z,1008.54
2018-07-07T09:49:43.914Z,1008.50
2018-07-07T09:50:43.900Z,1008.51
2018-07-07T09:51:43.919Z,1008.45
2018-07-07T09:52:43.874Z,1008.45
2018-07-07T09:53:43.875Z,1008.48
2018-07-07T09:54:43.942Z,1008.44
2018-07-07T09:55:43.848Z,1008.44
2018-07-07T09:56:43.841Z,1008.44
2018-07-07T09:57:43.835Z,1008.38
2018-07-07T09:58:43.821Z,1008.41
2018-07-07T09:59:43.804Z,1008.45
2018-07-07T10:00:43.798Z,1008.41
2018-07-07T10:01:43.790Z,1008.44
2018-07-07T10:02:43.801Z,1008.40
2018-07-07T10:03:43.765Z,1008.39
2018-07-07T10:04:43.759Z,1008.39
2018-07-07T10:05:43.739Z,1008.37
2018-07-07T10:06:43.732Z,1008.37
2018-07-07T10:07:43.794Z,1008.34
2018-07-07T10:08:43.716Z,1008.34
2018-07-07T10:09:43.703Z,1008.28
2018-07-07T10:10:43.689Z,1008.38
2018-07-07T10:11:43.684Z,1008.33
2018-07-07T10:12:43.667Z,1008.31
2018-07-07T10:13:43.666Z,1008.37
2018-07-07T10:14:43.649Z,1008.36
2018-07-07T10:15:43.639Z,1008.34
2018-07-07T10:16:43.630Z,1008.35
2018-07-07T10:17:43.617Z,1008.34
2018-07-07T10:18:43.634Z,1008.33
2018-07-07T10:19:43.600Z,1008.33
2018-07-07T10:20:43.611Z,1008.36
2018-07-07T10:21:44.597Z,1008.33
2018-07-07T10:22:43.595Z,1008.33
2018-07-07T10:23:43.595Z,1008.35
2018-07-07T10:24:43.534Z,1008.29
2018-07-07T10:25:43.532Z,1008.34
2018-07-07T10:26:43.519Z,1008.34
2018-07-07T10:27:43.509Z,1008.33
2018-07-07T10:28:43.529Z,1008.36
2018-07-07T10:29:43.481Z,1008.34
2018-07-07T10:30:43.473Z,1008.37
2018-07-07T10:31:43.461Z,1008.37
2018-07-07T10:32:43.451Z,1008.44
2018-07-07T10:33:43.445Z,1008.53
2018-07-07T10:34:43.436Z,1008.74
2018-07-07T10:35:43.422Z,1008.81
2018-07-07T10:36:43.414Z,1008.90
2018-07-07T10:37:43.396Z,1009.02
2018-07-07T10:38:43.415Z,1009.00
2018-07-07T10:39:43.381Z,1009.10
2018-07-07T10:40:43.373Z,1009.14
2018-07-07T10:41:43.358Z,1009.06
2018-07-07T10:42:43.352Z,1008.94
2018-07-07T10:43:44.135Z,1008.78
2018-07-07T10:44:43.376Z,1008.59
2018-07-07T10:45:43.367Z,1008.51
2018-07-07T10:46:43.329Z,1008.46
2018-07-07T10:47:43.306Z,1008.41
2018-07-07T10:48:43.320Z,1008.36
2018-07-07T10:49:43.278Z,1008.36
2018-07-07T10:50:43.278Z,1008.39
2018-07-07T10:51:43.259Z,1008.36
2018-07-07T10:52:43.247Z,1008.32
2018-07-07T10:53:43.243Z,1008.44
2018-07-07T10:54:43.233Z,1008.39
2018-07-07T10:55:43.220Z,1008.36
2018-07-07T10:56:43.207Z,1008.35
2018-07-07T10:57:43.206Z,1008.42
2018-07-07T10:58:43.195Z,1008.35
2018-07-07T10:59:43.184Z,1008.26
2018-07-07T11:00:43.175Z,1008.28
2018-07-07T11:01:43.162Z,1008.26
2018-07-07T11:02:43.219Z,1008.21
2018-07-07T11:03:43.136Z,1008.22
2018-07-07T11:04:43.148Z,1008.26
2018-07-07T11:05:43.125Z,1008.22
2018-07-07T11:06:43.107Z,1008.21
2018-07-07T11:07:43.096Z,1008.24
2018-07-07T11:08:43.100Z,1008.26
2018-07-07T11:09:43.098Z,1008.32
2018-07-07T11:10:43.062Z,1008.42
2018-07-07T11:11:43.102Z,1008.55
2018-07-07T11:12:43.049Z,1008.83
2018-07-07T11:13:43.031Z,1008.94
2018-07-07T11:14:43.050Z,1009.01
2018-07-07T11:15:43.012Z,1009.02
2018-07-07T11:16:43.002Z,1009.11
2018-07-07T11:17:42.996Z,1009.18
2018-07-07T11:18:42.987Z,1009.21
2018-07-07T11:19:42.975Z,1009.27
2018-07-07T11:20:42.973Z,1009.25
2018-07-07T11:21:42.952Z,1009.30
2018-07-07T11:22:42.944Z,1009.30
2018-07-07T11:23:42.936Z,1009.34
2018-07-07T11:24:42.928Z,1009.36
2018-07-07T11:25:42.948Z,1009.36
2018-07-07T11:26:42.913Z,1009.40
2018-07-07T11:27:42.902Z,1009.43
2018-07-07T11:28:42.901Z,1009.46
2018-07-07T11:29:42.937Z,1009.44
2018-07-07T11:30:42.900Z,1009.47
2018-07-07T11:31:42.889Z,1009.50
2018-07-07T11:32:42.862Z,1009.48
2018-07-07T11:33:42.855Z,1009.48
2018-07-07T11:34:42.883Z,1009.48
2018-07-07T11:35:42.875Z,1009.53
2018-07-07T11:36:43.049Z,1009.49
2018-07-07T11:37:42.845Z,1009.42
2018-07-07T11:38:42.822Z,1009.45
2018-07-07T11:39:42.802Z,1009.47
2018-07-07T11:40:42.817Z,1009.54
2018-07-07T11:41:42.792Z,1009.49
2018-07-07T11:42:42.780Z,1009.53
2018-07-07T11:43:42.768Z,1009.55
2018-07-07T11:44:42.764Z,1009.53
2018-07-07T11:45:42.750Z,1009.54
2018-07-07T11:46:42.748Z,1009.61
2018-07-07T11:47:42.744Z,1009.60
2018-07-07T11:48:42.728Z,1009.61
2018-07-07T11:49:42.723Z,1009.57
2018-07-07T11:50:42.724Z,1009.57
2018-07-07T11:51:42.730Z,1009.57
2018-07-07T11:52:42.699Z,1009.56
2018-07-07T11:53:42.683Z,1009.58
2018-07-07T11:54:42.680Z,1009.51
2018-07-07T11:55:42.681Z,1009.56
2018-07-07T11:56:42.660Z,1009.52
2018-07-07T11:57:42.662Z,1009.48
2018-07-07T11:58:42.651Z,1009.47
2018-07-07T11:59:42.640Z,1009.52
2018-07-07T12:00:42.631Z,1009.54
2018-07-07T12:01:42.688Z,1009.48
2018-07-07T12:02:42.660Z,1009.54
2018-07-07T12:03:42.613Z,1009.53
2018-07-07T12:04:42.867Z,1009.51
2018-07-07T12:05:42.594Z,1009.55